CheckWX is a tool to help pilots better visualize weather data.  It is not intended as a substitute for an official pre-flight weather briefing.

10:06:24 UTC

LJMB TAF
Maribor Airport
Slovenia
TAF LJMB 260800Z 2609/2709 VRB02KT CAVOK BECMG 2609/2611 17005KT TEMPO 2609/2616 FEW055 BECMG 2618/2619 VRB02KT BECMG 2707/2709 16005KT FEW050

Jun-26@
09:00 UTC

Jun-26 @ 09:00 UTC

Jun-27@
09:00 UTC

Jun-27 @ 09:00 UTC

TAF LJMB 260800Z 2609/2709 VRB02KT CAVOK
Wind
  • Variable at 2 KTS
Conditions
No significant weather
Cloud Levels
  • No significant clouds

Jun-26@
09:00 UTC

Jun-26 @ 09:00 UTC

Jun-26@
16:00 UTC

Jun-26 @ 16:00 UTC

TEMPO 2609/2616 FEW055

Temporary

Temporary Changes expected for less than half the time period

Cloud Levels
  • Few at 5,500' AGL

Jun-26@
09:00 UTC

Jun-26 @ 09:00 UTC

Jun-26@
18:00 UTC

Jun-26 @ 18:00 UTC

BECMG 2609/2611 17005KT

Becoming

Becoming Conditions expected by Wed, Jun 26, 2019 @ 11:00 UTC

Wind
  • 170° at 5 KTS
Conditions
No significant weather
Cloud Levels
  • No significant clouds

Jun-26@
18:00 UTC

Jun-26 @ 18:00 UTC

Jun-27@
07:00 UTC

Jun-27 @ 07:00 UTC

BECMG 2618/2619 VRB02KT

Becoming

Becoming Conditions expected by Wed, Jun 26, 2019 @ 19:00 UTC

Wind
  • Variable at 2 KTS
Conditions
No significant weather
Cloud Levels
  • No significant clouds

Jun-27@
07:00 UTC

Jun-27 @ 07:00 UTC

Jun-27@
09:00 UTC

Jun-27 @ 09:00 UTC

BECMG 2707/2709 16005KT FEW050

Becoming

Becoming Conditions expected by Thu, Jun 27, 2019 @ 09:00 UTC

Wind
  • 160° at 5 KTS
Conditions
No significant weather
Cloud Levels
  • Few at 5,000' AGL